Tisbury, Massachusetts
Current Conditions -  °F | °C
As of 1:53 PM on Sunday 21 Dec 2014 (Local Time) from KMVY Reporting Station
Overcast Overcast  
Wind Chill: 36°   Ceiling: 4700
Heat Index: 43°   Visibility: 10mi
Dew Point: 31°   Wind: 14mph
Humidity: 62%   Direction: 30°NNE
Pressure: 30.24"   Gusts: NA
Location:  41.4768°N, 70.6027°W
Report Text: KMVY 211853Z 03012KT 10SM OVC047 06/M01 A3024 RMK AO2 SLP240 T00611006
Loading
Personal Weather Stations






























Interactive Weather Map New forecast layout! Learn more

10-Day Weather Forecast

Advertisements
Track Severe Weather on mobile